sensor_id;sensor_type;location;lat;lon;timestamp;P1;durP1;ratioP1;P2;durP2;ratioP2
55469;SDS011;41334;47.872;16.384;2023-06-04T00:02:58;4.38;;;2.33;;
55469;SDS011;41334;47.872;16.384;2023-06-04T00:08:00;2.80;;;1.90;;
55469;SDS011;41334;47.872;16.384;2023-06-04T00:13:02;8.13;;;2.22;;
55469;SDS011;41334;47.872;16.384;2023-06-04T00:18:04;6.93;;;2.20;;
55469;SDS011;41334;47.872;16.384;2023-06-04T00:23:05;3.13;;;1.70;;
55469;SDS011;41334;47.872;16.384;2023-06-04T00:28:08;8.02;;;2.00;;
55469;SDS011;41334;47.872;16.384;2023-06-04T00:33:09;5.25;;;1.90;;
55469;SDS011;41334;47.872;16.384;2023-06-04T00:38:11;5.15;;;1.80;;
55469;SDS011;41334;47.872;16.384;2023-06-04T00:43:13;4.60;;;1.67;;
55469;SDS011;41334;47.872;16.384;2023-06-04T00:48:15;5.45;;;2.10;;
55469;SDS011;41334;47.872;16.384;2023-06-04T00:53:17;4.95;;;1.70;;
55469;SDS011;41334;47.872;16.384;2023-06-04T00:58:19;3.08;;;1.48;;
55469;SDS011;41334;47.872;16.384;2023-06-04T01:03:22;3.63;;;1.52;;
55469;SDS011;41334;47.872;16.384;2023-06-04T01:08:27;2.08;;;1.25;;
55469;SDS011;41334;47.872;16.384;2023-06-04T01:13:29;2.67;;;1.17;;
55469;SDS011;41334;47.872;16.384;2023-06-04T01:18:30;2.88;;;1.60;;
55469;SDS011;41334;47.872;16.384;2023-06-04T01:23:45;6.03;;;1.80;;
55469;SDS011;41334;47.872;16.384;2023-06-04T01:29:00;4.10;;;1.60;;
55469;SDS011;41334;47.872;16.384;2023-06-04T01:34:03;3.40;;;1.50;;
55469;SDS011;41334;47.872;16.384;2023-06-04T01:39:05;3.50;;;1.52;;
55469;SDS011;41334;47.872;16.384;2023-06-04T01:44:07;8.00;;;1.60;;
55469;SDS011;41334;47.872;16.384;2023-06-04T01:49:09;4.68;;;1.45;;
55469;SDS011;41334;47.872;16.384;2023-06-04T01:54:12;5.45;;;1.30;;
55469;SDS011;41334;47.872;16.384;2023-06-04T01:59:14;2.20;;;1.40;;
55469;SDS011;41334;47.872;16.384;2023-06-04T02:04:17;2.55;;;1.25;;
55469;SDS011;41334;47.872;16.384;2023-06-04T02:09:20;2.40;;;1.17;;
55469;SDS011;41334;47.872;16.384;2023-06-04T02:14:22;3.17;;;1.42;;
55469;SDS011;41334;47.872;16.384;2023-06-04T02:19:24;2.20;;;1.38;;
55469;SDS011;41334;47.872;16.384;2023-06-04T02:24:27;2.63;;;1.48;;
55469;SDS011;41334;47.872;16.384;2023-06-04T02:29:29;2.55;;;1.20;;
55469;SDS011;41334;47.872;16.384;2023-06-04T02:34:31;2.70;;;1.75;;
55469;SDS011;41334;47.872;16.384;2023-06-04T02:39:33;2.53;;;1.30;;
55469;SDS011;41334;47.872;16.384;2023-06-04T02:44:34;3.28;;;1.55;;
55469;SDS011;41334;47.872;16.384;2023-06-04T02:49:36;6.32;;;1.45;;
55469;SDS011;41334;47.872;16.384;2023-06-04T02:54:39;4.07;;;1.33;;
55469;SDS011;41334;47.872;16.384;2023-06-04T02:59:41;2.42;;;1.17;;
55469;SDS011;41334;47.872;16.384;2023-06-04T03:04:43;3.92;;;1.38;;
55469;SDS011;41334;47.872;16.384;2023-06-04T03:09:46;2.35;;;1.35;;
55469;SDS011;41334;47.872;16.384;2023-06-04T03:14:49;2.25;;;1.38;;
55469;SDS011;41334;47.872;16.384;2023-06-04T03:19:51;2.83;;;1.30;;
55469;SDS011;41334;47.872;16.384;2023-06-04T03:24:53;3.80;;;1.30;;
55469;SDS011;41334;47.872;16.384;2023-06-04T03:29:55;3.40;;;1.48;;
55469;SDS011;41334;47.872;16.384;2023-06-04T03:34:57;4.00;;;1.77;;
55469;SDS011;41334;47.872;16.384;2023-06-04T03:39:59;5.22;;;1.55;;
55469;SDS011;41334;47.872;16.384;2023-06-04T03:45:01;4.20;;;1.55;;
55469;SDS011;41334;47.872;16.384;2023-06-04T03:50:05;2.60;;;1.10;;
55469;SDS011;41334;47.872;16.384;2023-06-04T03:55:08;6.00;;;1.92;;
55469;SDS011;41334;47.872;16.384;2023-06-04T04:00:11;2.97;;;1.27;;
55469;SDS011;41334;47.872;16.384;2023-06-04T04:05:14;2.72;;;1.33;;
55469;SDS011;41334;47.872;16.384;2023-06-04T04:10:19;1.90;;;1.02;;
55469;SDS011;41334;47.872;16.384;2023-06-04T04:15:22;2.45;;;1.38;;
55469;SDS011;41334;47.872;16.384;2023-06-04T04:20:25;3.05;;;1.52;;
55469;SDS011;41334;47.872;16.384;2023-06-04T04:25:32;2.83;;;1.48;;
55469;SDS011;41334;47.872;16.384;2023-06-04T04:30:36;5.03;;;1.40;;
55469;SDS011;41334;47.872;16.384;2023-06-04T04:35:40;2.92;;;1.52;;
55469;SDS011;41334;47.872;16.384;2023-06-04T04:40:49;4.60;;;2.13;;
55469;SDS011;41334;47.872;16.384;2023-06-04T04:45:54;4.63;;;1.90;;
55469;SDS011;41334;47.872;16.384;2023-06-04T04:50:56;2.45;;;1.45;;
55469;SDS011;41334;47.872;16.384;2023-06-04T04:55:59;3.25;;;1.73;;
55469;SDS011;41334;47.872;16.384;2023-06-04T05:01:01;7.45;;;2.00;;
55469;SDS011;41334;47.872;16.384;2023-06-04T05:06:04;2.92;;;1.42;;
55469;SDS011;41334;47.872;16.384;2023-06-04T05:11:06;3.55;;;1.50;;
55469;SDS011;41334;47.872;16.384;2023-06-04T05:16:10;4.82;;;1.83;;
55469;SDS011;41334;47.872;16.384;2023-06-04T05:21:16;3.40;;;1.50;;
55469;SDS011;41334;47.872;16.384;2023-06-04T05:26:25;2.97;;;1.52;;
55469;SDS011;41334;47.872;16.384;2023-06-04T05:31:30;3.10;;;1.73;;
55469;SDS011;41334;47.872;16.384;2023-06-04T05:36:37;3.25;;;1.52;;
55469;SDS011;41334;47.872;16.384;2023-06-04T05:41:41;3.35;;;1.73;;
55469;SDS011;41334;47.872;16.384;2023-06-04T05:46:44;5.18;;;2.25;;
55469;SDS011;41334;47.872;16.384;2023-06-04T05:51:49;5.70;;;2.35;;
55469;SDS011;41334;47.872;16.384;2023-06-04T05:56:52;4.43;;;1.73;;
55469;SDS011;41334;47.872;16.384;2023-06-04T06:01:54;5.82;;;1.83;;
55469;SDS011;41334;47.872;16.384;2023-06-04T06:06:59;5.10;;;2.10;;
55469;SDS011;41334;47.872;16.384;2023-06-04T06:12:02;4.55;;;1.98;;
55469;SDS011;41334;47.872;16.384;2023-06-04T06:17:05;5.57;;;1.65;;
55469;SDS011;41334;47.872;16.384;2023-06-04T06:22:08;3.10;;;1.98;;
55469;SDS011;41334;47.872;16.384;2023-06-04T06:27:10;3.88;;;2.17;;
55469;SDS011;41334;47.872;16.384;2023-06-04T06:32:12;3.33;;;1.83;;
55469;SDS011;41334;47.872;16.384;2023-06-04T06:37:15;7.63;;;2.58;;
55469;SDS011;41334;47.872;16.384;2023-06-04T06:42:17;4.82;;;2.05;;
55469;SDS011;41334;47.872;16.384;2023-06-04T06:47:22;4.13;;;1.80;;
55469;SDS011;41334;47.872;16.384;2023-06-04T06:52:27;7.53;;;2.45;;
55469;SDS011;41334;47.872;16.384;2023-06-04T06:57:28;3.58;;;2.65;;
55469;SDS011;41334;47.872;16.384;2023-06-04T07:02:31;5.18;;;2.60;;
55469;SDS011;41334;47.872;16.384;2023-06-04T07:07:35;9.23;;;2.63;;
55469;SDS011;41334;47.872;16.384;2023-06-04T07:12:38;4.10;;;2.30;;
55469;SDS011;41334;47.872;16.384;2023-06-04T07:17:44;7.50;;;2.45;;
55469;SDS011;41334;47.872;16.384;2023-06-04T07:22:46;10.40;;;3.00;;
55469;SDS011;41334;47.872;16.384;2023-06-04T07:27:48;3.47;;;2.10;;
55469;SDS011;41334;47.872;16.384;2023-06-04T07:32:52;3.13;;;2.30;;
55469;SDS011;41334;47.872;16.384;2023-06-04T07:37:54;15.10;;;3.00;;
55469;SDS011;41334;47.872;16.384;2023-06-04T07:42:56;9.70;;;2.90;;
55469;SDS011;41334;47.872;16.384;2023-06-04T07:47:58;7.57;;;2.15;;
55469;SDS011;41334;47.872;16.384;2023-06-04T07:53:00;4.78;;;2.20;;
55469;SDS011;41334;47.872;16.384;2023-06-04T07:58:02;5.15;;;2.88;;
55469;SDS011;41334;47.872;16.384;2023-06-04T08:03:07;4.35;;;2.35;;
55469;SDS011;41334;47.872;16.384;2023-06-04T08:08:09;4.55;;;2.20;;
55469;SDS011;41334;47.872;16.384;2023-06-04T08:13:11;4.70;;;2.28;;
55469;SDS011;41334;47.872;16.384;2023-06-04T08:18:12;5.82;;;2.45;;
55469;SDS011;41334;47.872;16.384;2023-06-04T08:23:15;4.80;;;2.67;;
55469;SDS011;41334;47.872;16.384;2023-06-04T08:28:17;3.72;;;2.20;;
55469;SDS011;41334;47.872;16.384;2023-06-04T08:33:20;4.57;;;2.30;;
55469;SDS011;41334;47.872;16.384;2023-06-04T08:38:22;4.25;;;1.73;;
55469;SDS011;41334;47.872;16.384;2023-06-04T08:43:24;8.95;;;2.45;;
55469;SDS011;41334;47.872;16.384;2023-06-04T08:48:27;4.75;;;2.70;;
55469;SDS011;41334;47.872;16.384;2023-06-04T08:53:31;7.95;;;2.83;;
55469;SDS011;41334;47.872;16.384;2023-06-04T08:58:35;3.60;;;1.95;;
55469;SDS011;41334;47.872;16.384;2023-06-04T09:03:38;4.07;;;2.45;;
55469;SDS011;41334;47.872;16.384;2023-06-04T09:08:40;4.43;;;2.13;;
55469;SDS011;41334;47.872;16.384;2023-06-04T09:13:57;3.80;;;2.13;;
55469;SDS011;41334;47.872;16.384;2023-06-04T09:19:02;4.32;;;1.95;;
55469;SDS011;41334;47.872;16.384;2023-06-04T09:24:05;3.47;;;2.08;;
55469;SDS011;41334;47.872;16.384;2023-06-04T09:29:07;7.43;;;2.15;;
55469;SDS011;41334;47.872;16.384;2023-06-04T09:34:09;3.70;;;2.10;;
55469;SDS011;41334;47.872;16.384;2023-06-04T09:39:17;5.47;;;2.00;;
55469;SDS011;41334;47.872;16.384;2023-06-04T09:44:20;3.15;;;2.20;;
55469;SDS011;41334;47.872;16.384;2023-06-04T09:49:22;4.32;;;1.98;;
55469;SDS011;41334;47.872;16.384;2023-06-04T09:54:34;5.45;;;2.10;;
55469;SDS011;41334;47.872;16.384;2023-06-04T09:59:38;2.75;;;1.58;;
55469;SDS011;41334;47.872;16.384;2023-06-04T10:04:41;4.57;;;1.83;;
55469;SDS011;41334;47.872;16.384;2023-06-04T10:09:47;6.55;;;2.00;;
55469;SDS011;41334;47.872;16.384;2023-06-04T10:14:52;5.35;;;1.80;;
55469;SDS011;41334;47.872;16.384;2023-06-04T10:19:58;3.08;;;1.42;;
55469;SDS011;41334;47.872;16.384;2023-06-04T10:25:03;4.10;;;1.58;;
55469;SDS011;41334;47.872;16.384;2023-06-04T10:30:06;4.97;;;1.30;;
55469;SDS011;41334;47.872;16.384;2023-06-04T10:35:08;6.43;;;1.50;;
55469;SDS011;41334;47.872;16.384;2023-06-04T10:40:10;4.65;;;1.52;;
55469;SDS011;41334;47.872;16.384;2023-06-04T10:45:12;5.10;;;1.70;;
55469;SDS011;41334;47.872;16.384;2023-06-04T10:50:14;4.93;;;1.27;;
55469;SDS011;41334;47.872;16.384;2023-06-04T10:55:17;2.75;;;1.17;;
55469;SDS011;41334;47.872;16.384;2023-06-04T11:00:19;6.43;;;1.45;;
55469;SDS011;41334;47.872;16.384;2023-06-04T11:05:21;2.22;;;1.40;;
55469;SDS011;41334;47.872;16.384;2023-06-04T11:10:29;3.35;;;1.33;;
55469;SDS011;41334;47.872;16.384;2023-06-04T11:15:45;6.18;;;0.90;;
55469;SDS011;41334;47.872;16.384;2023-06-04T11:20:49;3.30;;;1.60;;
55469;SDS011;41334;47.872;16.384;2023-06-04T11:26:03;4.22;;;1.40;;
55469;SDS011;41334;47.872;16.384;2023-06-04T11:31:05;1.90;;;1.10;;
55469;SDS011;41334;47.872;16.384;2023-06-04T11:36:08;2.50;;;1.30;;
55469;SDS011;41334;47.872;16.384;2023-06-04T11:41:10;2.65;;;1.17;;
55469;SDS011;41334;47.872;16.384;2023-06-04T11:46:12;2.30;;;1.40;;
55469;SDS011;41334;47.872;16.384;2023-06-04T11:51:15;6.10;;;1.35;;
55469;SDS011;41334;47.872;16.384;2023-06-04T11:56:17;2.10;;;1.02;;
55469;SDS011;41334;47.872;16.384;2023-06-04T12:01:19;4.10;;;0.98;;
55469;SDS011;41334;47.872;16.384;2023-06-04T12:06:22;3.42;;;1.05;;
55469;SDS011;41334;47.872;16.384;2023-06-04T12:11:28;3.22;;;1.40;;
55469;SDS011;41334;47.872;16.384;2023-06-04T12:16:34;1.25;;;0.63;;
55469;SDS011;41334;47.872;16.384;2023-06-04T12:21:36;4.05;;;1.85;;
55469;SDS011;41334;47.872;16.384;2023-06-04T12:26:40;2.35;;;1.25;;
55469;SDS011;41334;47.872;16.384;2023-06-04T12:31:48;2.50;;;1.30;;
55469;SDS011;41334;47.872;16.384;2023-06-04T12:36:50;3.92;;;1.30;;
55469;SDS011;41334;47.872;16.384;2023-06-04T12:41:52;2.42;;;1.13;;
55469;SDS011;41334;47.872;16.384;2023-06-04T12:46:54;1.40;;;0.82;;
55469;SDS011;41334;47.872;16.384;2023-06-04T12:51:59;4.45;;;0.90;;
55469;SDS011;41334;47.872;16.384;2023-06-04T12:57:02;1.77;;;0.75;;
55469;SDS011;41334;47.872;16.384;2023-06-04T13:02:04;3.65;;;1.10;;
55469;SDS011;41334;47.872;16.384;2023-06-04T13:07:07;1.80;;;1.05;;
55469;SDS011;41334;47.872;16.384;2023-06-04T13:12:09;1.70;;;1.00;;
55469;SDS011;41334;47.872;16.384;2023-06-04T13:17:11;4.03;;;1.58;;
55469;SDS011;41334;47.872;16.384;2023-06-04T13:22:23;3.25;;;1.15;;
55469;SDS011;41334;47.872;16.384;2023-06-04T13:27:25;2.05;;;1.00;;
55469;SDS011;41334;47.872;16.384;2023-06-04T13:32:26;2.95;;;1.20;;
55469;SDS011;41334;47.872;16.384;2023-06-04T13:37:28;8.73;;;1.48;;
55469;SDS011;41334;47.872;16.384;2023-06-04T13:42:42;1.83;;;1.17;;
55469;SDS011;41334;47.872;16.384;2023-06-04T13:47:47;3.15;;;1.55;;
55469;SDS011;41334;47.872;16.384;2023-06-04T13:52:49;2.05;;;1.20;;
55469;SDS011;41334;47.872;16.384;2023-06-04T13:57:52;2.63;;;1.30;;
55469;SDS011;41334;47.872;16.384;2023-06-04T14:02:54;4.47;;;1.20;;
55469;SDS011;41334;47.872;16.384;2023-06-04T14:07:56;2.50;;;1.23;;
55469;SDS011;41334;47.872;16.384;2023-06-04T14:12:59;5.90;;;1.33;;
55469;SDS011;41334;47.872;16.384;2023-06-04T14:18:03;5.97;;;1.25;;
55469;SDS011;41334;47.872;16.384;2023-06-04T14:23:06;3.00;;;1.35;;
55469;SDS011;41334;47.872;16.384;2023-06-04T14:28:08;6.25;;;1.45;;
55469;SDS011;41334;47.872;16.384;2023-06-04T14:33:10;5.57;;;1.83;;
55469;SDS011;41334;47.872;16.384;2023-06-04T14:38:13;3.17;;;1.60;;
55469;SDS011;41334;47.872;16.384;2023-06-04T14:43:18;4.68;;;1.52;;
55469;SDS011;41334;47.872;16.384;2023-06-04T14:48:20;3.33;;;1.70;;
55469;SDS011;41334;47.872;16.384;2023-06-04T14:53:22;3.35;;;1.45;;
55469;SDS011;41334;47.872;16.384;2023-06-04T14:58:24;6.20;;;2.22;;
55469;SDS011;41334;47.872;16.384;2023-06-04T15:03:26;4.35;;;2.10;;
55469;SDS011;41334;47.872;16.384;2023-06-04T15:08:28;3.50;;;1.52;;
55469;SDS011;41334;47.872;16.384;2023-06-04T15:13:30;3.20;;;1.70;;
55469;SDS011;41334;47.872;16.384;2023-06-04T15:18:32;5.10;;;2.25;;
55469;SDS011;41334;47.872;16.384;2023-06-04T15:23:35;4.13;;;2.22;;
55469;SDS011;41334;47.872;16.384;2023-06-04T15:28:38;3.22;;;1.83;;
55469;SDS011;41334;47.872;16.384;2023-06-04T15:33:40;3.63;;;1.67;;
55469;SDS011;41334;47.872;16.384;2023-06-04T15:38:42;4.78;;;2.20;;
55469;SDS011;41334;47.872;16.384;2023-06-04T15:43:44;5.95;;;2.20;;
55469;SDS011;41334;47.872;16.384;2023-06-04T15:48:46;3.72;;;1.98;;
55469;SDS011;41334;47.872;16.384;2023-06-04T15:53:48;3.25;;;1.70;;
55469;SDS011;41334;47.872;16.384;2023-06-04T15:58:49;5.43;;;2.08;;
55469;SDS011;41334;47.872;16.384;2023-06-04T16:03:51;3.60;;;1.95;;
55469;SDS011;41334;47.872;16.384;2023-06-04T16:08:54;7.53;;;2.20;;
55469;SDS011;41334;47.872;16.384;2023-06-04T16:13:56;5.70;;;1.77;;
55469;SDS011;41334;47.872;16.384;2023-06-04T16:18:58;2.47;;;1.60;;
55469;SDS011;41334;47.872;16.384;2023-06-04T16:24:00;2.70;;;1.88;;
55469;SDS011;41334;47.872;16.384;2023-06-04T16:29:02;4.85;;;2.50;;
55469;SDS011;41334;47.872;16.384;2023-06-04T16:34:04;5.28;;;2.42;;
55469;SDS011;41334;47.872;16.384;2023-06-04T16:39:05;3.33;;;1.90;;
55469;SDS011;41334;47.872;16.384;2023-06-04T16:44:07;4.32;;;2.20;;
55469;SDS011;41334;47.872;16.384;2023-06-04T16:49:09;3.00;;;1.85;;
55469;SDS011;41334;47.872;16.384;2023-06-04T16:54:11;5.90;;;2.45;;
55469;SDS011;41334;47.872;16.384;2023-06-04T16:59:13;6.05;;;2.65;;
55469;SDS011;41334;47.872;16.384;2023-06-04T17:04:15;3.22;;;2.15;;
55469;SDS011;41334;47.872;16.384;2023-06-04T17:09:17;3.80;;;2.10;;
55469;SDS011;41334;47.872;16.384;2023-06-04T17:14:19;3.67;;;2.20;;
55469;SDS011;41334;47.872;16.384;2023-06-04T17:19:21;4.35;;;2.05;;
55469;SDS011;41334;47.872;16.384;2023-06-04T17:24:23;3.75;;;2.10;;
55469;SDS011;41334;47.872;16.384;2023-06-04T17:29:26;4.10;;;2.22;;
55469;SDS011;41334;47.872;16.384;2023-06-04T17:34:28;7.63;;;2.13;;
55469;SDS011;41334;47.872;16.384;2023-06-04T17:39:31;4.75;;;2.38;;
55469;SDS011;41334;47.872;16.384;2023-06-04T17:44:34;4.38;;;2.47;;
55469;SDS011;41334;47.872;16.384;2023-06-04T17:49:36;3.78;;;2.22;;
55469;SDS011;41334;47.872;16.384;2023-06-04T17:54:38;3.58;;;2.25;;
55469;SDS011;41334;47.872;16.384;2023-06-04T17:59:40;3.55;;;2.20;;
55469;SDS011;41334;47.872;16.384;2023-06-04T18:04:42;4.88;;;2.20;;
55469;SDS011;41334;47.872;16.384;2023-06-04T18:09:44;3.67;;;1.88;;
55469;SDS011;41334;47.872;16.384;2023-06-04T18:14:49;4.60;;;1.85;;
55469;SDS011;41334;47.872;16.384;2023-06-04T18:19:51;4.63;;;2.38;;
55469;SDS011;41334;47.872;16.384;2023-06-04T18:24:53;6.80;;;2.15;;
55469;SDS011;41334;47.872;16.384;2023-06-04T18:29:55;7.78;;;2.03;;
55469;SDS011;41334;47.872;16.384;2023-06-04T18:34:57;4.85;;;2.38;;
55469;SDS011;41334;47.872;16.384;2023-06-04T18:39:59;5.85;;;1.77;;
55469;SDS011;41334;47.872;16.384;2023-06-04T18:45:01;6.15;;;2.45;;
55469;SDS011;41334;47.872;16.384;2023-06-04T18:50:08;7.78;;;2.47;;
55469;SDS011;41334;47.872;16.384;2023-06-04T18:55:10;3.47;;;1.92;;
55469;SDS011;41334;47.872;16.384;2023-06-04T19:00:12;5.63;;;2.20;;
55469;SDS011;41334;47.872;16.384;2023-06-04T19:05:15;4.28;;;2.33;;
55469;SDS011;41334;47.872;16.384;2023-06-04T19:10:18;3.58;;;2.05;;
55469;SDS011;41334;47.872;16.384;2023-06-04T19:15:21;4.03;;;2.03;;
55469;SDS011;41334;47.872;16.384;2023-06-04T19:20:23;2.53;;;1.73;;
55469;SDS011;41334;47.872;16.384;2023-06-04T19:25:25;7.07;;;2.58;;
55469;SDS011;41334;47.872;16.384;2023-06-04T19:30:27;7.57;;;2.10;;
55469;SDS011;41334;47.872;16.384;2023-06-04T19:35:29;4.68;;;2.55;;
55469;SDS011;41334;47.872;16.384;2023-06-04T19:40:31;5.85;;;2.00;;
55469;SDS011;41334;47.872;16.384;2023-06-04T19:45:33;4.25;;;2.15;;
55469;SDS011;41334;47.872;16.384;2023-06-04T19:50:37;4.68;;;2.22;;
55469;SDS011;41334;47.872;16.384;2023-06-04T19:55:40;3.40;;;1.95;;
55469;SDS011;41334;47.872;16.384;2023-06-04T20:00:42;7.53;;;2.60;;
55469;SDS011;41334;47.872;16.384;2023-06-04T20:05:46;4.30;;;2.25;;
55469;SDS011;41334;47.872;16.384;2023-06-04T20:10:48;4.25;;;2.78;;
55469;SDS011;41334;47.872;16.384;2023-06-04T20:15:50;7.03;;;2.10;;
55469;SDS011;41334;47.872;16.384;2023-06-04T20:20:52;4.32;;;2.40;;
55469;SDS011;41334;47.872;16.384;2023-06-04T20:25:54;3.63;;;2.17;;
55469;SDS011;41334;47.872;16.384;2023-06-04T20:31:00;4.22;;;2.47;;
55469;SDS011;41334;47.872;16.384;2023-06-04T20:36:03;4.07;;;2.38;;
55469;SDS011;41334;47.872;16.384;2023-06-04T20:41:06;5.45;;;2.38;;
55469;SDS011;41334;47.872;16.384;2023-06-04T20:46:08;5.10;;;2.33;;
55469;SDS011;41334;47.872;16.384;2023-06-04T20:51:11;5.00;;;2.00;;
55469;SDS011;41334;47.872;16.384;2023-06-04T20:56:15;4.32;;;1.90;;
55469;SDS011;41334;47.872;16.384;2023-06-04T21:01:18;3.65;;;2.10;;
55469;SDS011;41334;47.872;16.384;2023-06-04T21:06:20;3.28;;;1.88;;
55469;SDS011;41334;47.872;16.384;2023-06-04T21:11:25;3.60;;;1.92;;
55469;SDS011;41334;47.872;16.384;2023-06-04T21:16:28;2.92;;;1.75;;
55469;SDS011;41334;47.872;16.384;2023-06-04T21:21:30;3.17;;;1.65;;
55469;SDS011;41334;47.872;16.384;2023-06-04T21:26:33;3.20;;;1.80;;
55469;SDS011;41334;47.872;16.384;2023-06-04T21:31:35;2.45;;;1.55;;
55469;SDS011;41334;47.872;16.384;2023-06-04T21:36:39;5.68;;;1.73;;
55469;SDS011;41334;47.872;16.384;2023-06-04T21:41:46;2.72;;;1.83;;
55469;SDS011;41334;47.872;16.384;2023-06-04T21:46:59;3.55;;;1.60;;
55469;SDS011;41334;47.872;16.384;2023-06-04T21:52:03;5.60;;;2.22;;
55469;SDS011;41334;47.872;16.384;2023-06-04T21:57:25;3.78;;;2.03;;
55469;SDS011;41334;47.872;16.384;2023-06-04T22:02:27;5.93;;;2.30;;
55469;SDS011;41334;47.872;16.384;2023-06-04T22:07:29;3.33;;;1.80;;
55469;SDS011;41334;47.872;16.384;2023-06-04T22:12:30;3.30;;;1.83;;
55469;SDS011;41334;47.872;16.384;2023-06-04T22:17:32;3.13;;;1.60;;
55469;SDS011;41334;47.872;16.384;2023-06-04T22:22:34;4.50;;;2.00;;
55469;SDS011;41334;47.872;16.384;2023-06-04T22:27:36;3.28;;;1.90;;
55469;SDS011;41334;47.872;16.384;2023-06-04T22:32:38;2.50;;;1.75;;
55469;SDS011;41334;47.872;16.384;2023-06-04T22:37:40;4.45;;;2.35;;
55469;SDS011;41334;47.872;16.384;2023-06-04T22:42:42;7.85;;;2.05;;
55469;SDS011;41334;47.872;16.384;2023-06-04T22:47:44;2.92;;;2.17;;
55469;SDS011;41334;47.872;16.384;2023-06-04T22:52:47;6.30;;;2.20;;
55469;SDS011;41334;47.872;16.384;2023-06-04T22:57:49;3.10;;;1.77;;
55469;SDS011;41334;47.872;16.384;2023-06-04T23:02:53;4.00;;;2.10;;
55469;SDS011;41334;47.872;16.384;2023-06-04T23:07:55;5.13;;;2.08;;
55469;SDS011;41334;47.872;16.384;2023-06-04T23:12:57;4.32;;;2.50;;
55469;SDS011;41334;47.872;16.384;2023-06-04T23:17:59;3.40;;;2.00;;
55469;SDS011;41334;47.872;16.384;2023-06-04T23:23:02;5.18;;;2.25;;
55469;SDS011;41334;47.872;16.384;2023-06-04T23:28:04;3.15;;;2.05;;
55469;SDS011;41334;47.872;16.384;2023-06-04T23:33:06;4.00;;;2.22;;
55469;SDS011;41334;47.872;16.384;2023-06-04T23:38:08;4.03;;;1.85;;
55469;SDS011;41334;47.872;16.384;2023-06-04T23:43:10;3.55;;;2.10;;
55469;SDS011;41334;47.872;16.384;2023-06-04T23:48:12;4.90;;;2.38;;
55469;SDS011;41334;47.872;16.384;2023-06-04T23:53:14;3.90;;;2.13;;
55469;SDS011;41334;47.872;16.384;2023-06-04T23:58:16;3.53;;;2.00;;
